Time;durP1;ratioP1;P1;durP2;ratioP2;P2;SDS_P1;SDS_P2;PMS_P1;PMS_P2;Temp;Humidity;BMP_temperature;BMP_pressure;BME280_temperature;BME280_humidity;BME280_pressure;Samples;Min_cycle;Max_cycle;Signal;HPM_P1;HPM_P2
2023/12/06 00:01:21;;;;;;;4.20;2.47;;;9.40;90.00;;;;;;4910465;29;20565;-84
2023/12/06 00:03:52;;;;;;;3.67;3.37;;;9.40;90.10;;;;;;4911803;29;20207;-85
2023/12/06 00:06:24;;;;;;;2.00;1.90;;;9.40;90.00;;;;;;4910648;29;20308;-85
2023/12/06 00:08:53;;;;;;;1.83;1.73;;;9.40;90.10;;;;;;4918418;29;20533;-83
2023/12/06 00:11:24;;;;;;;3.60;1.53;;;9.40;90.10;;;;;;4915445;29;20199;-84
2023/12/06 00:13:53;;;;;;;2.30;2.10;;;9.40;90.20;;;;;;4910961;29;20561;-84
2023/12/06 00:16:23;;;;;;;2.47;2.03;;;9.40;90.10;;;;;;4895014;29;20214;-84
2023/12/06 00:18:55;;;;;;;2.40;1.63;;;9.40;90.00;;;;;;4917637;29;20201;-84
2023/12/06 00:21:27;;;;;;;13.43;1.87;;;9.40;90.00;;;;;;4909794;29;20717;-85
2023/12/06 00:23:56;;;;;;;2.17;1.97;;;9.30;90.00;;;;;;4911498;29;20195;-83
2023/12/06 00:26:25;;;;;;;3.37;2.40;;;9.30;90.00;;;;;;4911805;29;20226;-83
2023/12/06 00:28:54;;;;;;;2.03;1.33;;;9.30;90.00;;;;;;4913923;29;20200;-83
2023/12/06 00:31:23;;;;;;;1.80;1.70;;;9.30;90.00;;;;;;4880252;29;20212;-82
2023/12/06 00:33:58;;;;;;;3.47;1.37;;;9.40;90.00;;;;;;4913458;29;20204;-83
2023/12/06 00:36:27;;;;;;;4.80;1.80;;;9.40;90.00;;;;;;4915598;29;20306;-84
2023/12/06 00:38:58;;;;;;;1.97;1.83;;;9.40;90.00;;;;;;4916740;29;20700;-84
2023/12/06 00:41:27;;;;;;;1.60;1.50;;;9.40;90.10;;;;;;4913421;29;20207;-83
2023/12/06 00:43:56;;;;;;;2.13;1.93;;;9.50;90.30;;;;;;4914121;29;20282;-83
2023/12/06 00:46:27;;;;;;;2.30;1.00;;;9.50;90.30;;;;;;4916010;29;20226;-84
2023/12/06 00:48:58;;;;;;;5.40;3.23;;;9.50;90.30;;;;;;4907402;29;20192;-84
2023/12/06 00:51:28;;;;;;;2.07;1.63;;;9.50;90.60;;;;;;4898865;29;20204;-83
2023/12/06 00:53:57;;;;;;;1.50;1.40;;;9.50;90.60;;;;;;4913261;29;20200;-84
2023/12/06 00:56:26;;;;;;;4.50;3.00;;;9.50;90.80;;;;;;4915040;29;20196;-83
2023/12/06 00:58:55;;;;;;;9.23;2.23;;;9.50;90.60;;;;;;4911553;29;20203;-84
2023/12/06 01:01:24;;;;;;;2.63;2.43;;;9.60;90.60;;;;;;4910282;29;20196;-83
2023/12/06 01:03:54;;;;;;;3.73;2.07;;;9.60;90.60;;;;;;4911043;29;20200;-84
2023/12/06 01:06:26;;;;;;;1.60;1.50;;;9.60;90.60;;;;;;4913745;29;20224;-85
2023/12/06 01:08:55;;;;;;;2.00;1.80;;;9.60;90.60;;;;;;4909758;29;20389;-82
2023/12/06 01:11:25;;;;;;;2.03;1.80;;;9.60;90.70;;;;;;4914944;29;20656;-84
2023/12/06 01:13:54;;;;;;;4.80;2.20;;;9.60;90.60;;;;;;4898372;29;20300;-81
2023/12/06 01:16:24;;;;;;;2.57;2.37;;;9.60;90.80;;;;;;4912355;29;20584;-83
2023/12/06 01:18:53;;;;;;;3.17;2.17;;;9.70;90.70;;;;;;4910426;29;20223;-84
2023/12/06 01:21:27;;;;;;;1.73;1.63;;;9.70;90.60;;;;;;4915281;29;20560;-81
2023/12/06 01:23:56;;;;;;;6.30;1.83;;;9.70;90.60;;;;;;4892994;29;20200;-82
2023/12/06 01:26:25;;;;;;;1.40;1.30;;;9.70;90.70;;;;;;4910960;29;20211;-83
2023/12/06 01:28:54;;;;;;;2.40;1.53;;;9.70;90.60;;;;;;4913183;29;20196;-84
2023/12/06 01:31:28;;;;;;;1.30;1.10;;;9.80;90.60;;;;;;4911606;29;20207;-84
2023/12/06 01:33:58;;;;;;;1.83;1.73;;;9.80;90.60;;;;;;4914191;29;20223;-83
2023/12/06 01:36:28;;;;;;;1.20;1.17;;;9.80;90.60;;;;;;4913358;29;20246;-84
2023/12/06 01:38:58;;;;;;;2.50;2.07;;;9.80;90.70;;;;;;4917581;29;20191;-83
2023/12/06 01:41:27;;;;;;;4.03;2.17;;;9.80;90.80;;;;;;4920724;29;20200;-83
2023/12/06 01:43:57;;;;;;;2.73;2.53;;;9.90;90.90;;;;;;4911728;29;21500;-83
2023/12/06 01:46:26;;;;;;;0.93;0.93;;;9.90;90.80;;;;;;4913796;29;20298;-83
2023/12/06 01:48:58;;;;;;;2.80;1.63;;;9.90;90.80;;;;;;4899847;29;20203;-82
2023/12/06 01:51:30;;;;;;;1.60;1.50;;;10.00;90.80;;;;;;4916307;29;20203;-84
2023/12/06 01:53:59;;;;;;;2.37;1.87;;;10.00;90.80;;;;;;4908153;29;20699;-84
2023/12/06 01:56:28;;;;;;;5.77;2.43;;;10.00;90.90;;;;;;4912735;29;20219;-83
2023/12/06 01:58:57;;;;;;;2.53;2.30;;;10.00;90.80;;;;;;4897988;29;20784;-84
2023/12/06 02:01:26;;;;;;;1.93;1.77;;;10.00;90.80;;;;;;4920088;29;20216;-83
2023/12/06 02:04:00;;;;;;;1.37;1.27;;;10.00;90.80;;;;;;4899049;29;20216;-84
2023/12/06 02:06:36;;;;;;;4.60;3.00;;;10.00;90.80;;;;;;4898530;29;20763;-82
2023/12/06 02:09:11;;;;;;;3.80;2.73;;;10.00;90.80;;;;;;4911753;29;20207;-84
2023/12/06 02:11:41;;;;;;;5.03;2.73;;;10.00;90.90;;;;;;4910660;29;20203;-83
2023/12/06 02:14:10;;;;;;;2.93;1.63;;;10.00;90.90;;;;;;4897418;29;20203;-84
2023/12/06 02:16:39;;;;;;;2.97;2.53;;;10.00;90.80;;;;;;4917274;29;20231;-84
2023/12/06 02:19:11;;;;;;;2.23;1.93;;;10.00;90.80;;;;;;4918150;29;20613;-83
2023/12/06 02:21:42;;;;;;;2.07;1.97;;;10.00;90.90;;;;;;4913570;29;20208;-83
2023/12/06 02:24:13;;;;;;;5.20;1.80;;;10.00;90.80;;;;;;4913260;29;20215;-83
2023/12/06 02:26:44;;;;;;;1.93;1.83;;;10.10;90.80;;;;;;4913334;29;20207;-84
2023/12/06 02:29:13;;;;;;;1.07;1.07;;;10.10;90.80;;;;;;4919678;29;20192;-84
2023/12/06 02:31:41;;;;;;;3.63;2.87;;;10.10;90.80;;;;;;4916116;29;20196;-82
2023/12/06 02:34:16;;;;;;;3.10;2.80;;;10.10;90.80;;;;;;4913371;29;20203;-84
2023/12/06 02:36:48;;;;;;;2.90;2.40;;;10.10;90.70;;;;;;4913782;29;20242;-84
2023/12/06 02:39:18;;;;;;;0.93;0.73;;;10.10;90.70;;;;;;4915199;29;20220;-82
2023/12/06 02:41:50;;;;;;;2.20;1.97;;;10.10;90.70;;;;;;4916390;29;20218;-83
2023/12/06 02:44:20;;;;;;;0.90;0.90;;;10.10;90.70;;;;;;4916884;29;20679;-84
2023/12/06 02:46:49;;;;;;;2.30;2.07;;;10.10;90.70;;;;;;4912666;29;20206;-83
2023/12/06 02:49:17;;;;;;;4.37;1.20;;;10.20;90.70;;;;;;4899312;29;20243;-83
2023/12/06 02:51:46;;;;;;;1.50;1.40;;;10.20;90.70;;;;;;4911304;29;20648;-83
2023/12/06 02:54:15;;;;;;;2.27;2.07;;;10.20;91.10;;;;;;4913649;29;20219;-83
2023/12/06 02:56:44;;;;;;;1.83;1.73;;;10.20;90.70;;;;;;4920119;29;20237;-84
2023/12/06 02:59:15;;;;;;;1.87;1.63;;;10.20;90.70;;;;;;4912013;29;20203;-83
2023/12/06 03:01:47;;;;;;;1.90;1.67;;;10.20;90.70;;;;;;4917823;29;20421;-84
2023/12/06 03:04:16;;;;;;;2.50;2.30;;;10.20;90.70;;;;;;4915437;29;20222;-84
2023/12/06 03:06:45;;;;;;;2.30;2.10;;;10.20;90.70;;;;;;4917513;29;20280;-83
2023/12/06 03:09:14;;;;;;;1.53;1.40;;;10.20;90.70;;;;;;4915987;29;20223;-82
2023/12/06 03:11:43;;;;;;;1.30;1.20;;;10.20;90.60;;;;;;4913114;29;22332;-82
2023/12/06 03:14:18;;;;;;;1.57;1.47;;;10.20;90.60;;;;;;4910040;29;20203;-83
2023/12/06 03:16:47;;;;;;;3.03;2.27;;;10.20;90.60;;;;;;4911487;29;20267;-83
2023/12/06 03:19:16;;;;;;;2.20;1.80;;;10.20;90.60;;;;;;4916836;29;20204;-84
2023/12/06 03:21:46;;;;;;;6.17;4.50;;;10.20;90.70;;;;;;4913366;29;20200;-84
2023/12/06 03:24:15;;;;;;;2.77;2.40;;;10.20;90.70;;;;;;4900143;29;20204;-82
2023/12/06 03:26:44;;;;;;;2.67;1.90;;;10.20;90.70;;;;;;4914001;29;20765;-82
2023/12/06 03:29:15;;;;;;;1.53;1.43;;;10.20;90.80;;;;;;4914820;29;20287;-83
2023/12/06 03:31:45;;;;;;;3.03;2.10;;;10.20;90.80;;;;;;4903135;29;20294;-82
2023/12/06 03:34:14;;;;;;;2.63;2.43;;;10.20;90.70;;;;;;4903365;29;20302;-84
2023/12/06 03:36:43;;;;;;;1.83;1.67;;;10.20;90.80;;;;;;4913321;29;20236;-83
2023/12/06 03:39:13;;;;;;;9.73;1.83;;;10.20;90.70;;;;;;4914484;29;20804;-83
2023/12/06 03:41:42;;;;;;;1.37;1.30;;;10.20;90.70;;;;;;4897414;29;20218;-83
2023/12/06 03:44:11;;;;;;;1.13;1.03;;;10.20;90.70;;;;;;4897176;29;20203;-84
2023/12/06 03:46:41;;;;;;;4.63;1.47;;;10.20;90.70;;;;;;4911339;29;20207;-85
2023/12/06 03:49:10;;;;;;;3.60;2.73;;;10.30;90.70;;;;;;4912159;29;20251;-84
2023/12/06 03:51:39;;;;;;;1.90;1.80;;;10.30;90.70;;;;;;4911802;29;20200;-84
2023/12/06 03:54:08;;;;;;;1.77;1.67;;;10.30;90.70;;;;;;4911032;29;20104;-83
2023/12/06 03:56:37;;;;;;;1.63;1.53;;;10.30;90.60;;;;;;4911285;29;20226;-84
2023/12/06 03:59:07;;;;;;;1.70;1.00;;;10.30;90.60;;;;;;4919792;29;20206;-83
2023/12/06 04:01:37;;;;;;;1.63;1.53;;;10.30;90.60;;;;;;4913413;29;20287;-83
2023/12/06 04:04:08;;;;;;;2.77;1.70;;;10.30;90.60;;;;;;4918568;29;20621;-85
2023/12/06 04:06:38;;;;;;;0.60;0.60;;;10.30;90.60;;;;;;4917291;29;20200;-85
2023/12/06 04:09:10;;;;;;;1.47;1.37;;;10.30;90.60;;;;;;4916838;29;20260;-85
2023/12/06 04:11:40;;;;;;;7.20;1.97;;;10.30;90.60;;;;;;4917030;29;21023;-84
2023/12/06 04:14:09;;;;;;;1.53;1.43;;;10.30;90.60;;;;;;4913968;29;20215;-84
2023/12/06 04:16:45;;;;;;;1.03;1.03;;;10.30;90.60;;;;;;4911061;29;20985;-84
2023/12/06 04:19:16;;;;;;;0.60;0.60;;;10.30;90.60;;;;;;4916087;29;20286;-84
2023/12/06 04:21:46;;;;;;;2.83;2.53;;;10.40;90.60;;;;;;4912300;29;20227;-83
2023/12/06 04:24:15;;;;;;;1.70;1.47;;;10.40;90.60;;;;;;4917124;29;20221;-83
2023/12/06 04:26:44;;;;;;;1.27;1.17;;;10.40;90.60;;;;;;4912340;29;20295;-83
2023/12/06 04:29:15;;;;;;;2.03;1.77;;;10.40;90.70;;;;;;4916743;29;20287;-84
2023/12/06 04:31:44;;;;;;;1.20;1.17;;;10.40;90.70;;;;;;4917626;29;20559;-83
2023/12/06 04:34:13;;;;;;;2.27;2.00;;;10.40;90.70;;;;;;4915993;29;20207;-84
2023/12/06 04:36:44;;;;;;;1.70;1.60;;;10.40;90.70;;;;;;4897823;29;20239;-83
2023/12/06 04:39:13;;;;;;;1.27;0.97;;;10.40;90.70;;;;;;4913105;29;20263;-83
2023/12/06 04:41:42;;;;;;;0.97;0.77;;;10.40;90.70;;;;;;4911740;29;20730;-84
2023/12/06 04:44:11;;;;;;;1.70;1.13;;;10.50;90.80;;;;;;4912400;29;20211;-83
2023/12/06 04:46:41;;;;;;;1.10;0.87;;;10.50;90.70;;;;;;4910111;29;20210;-84
2023/12/06 04:49:09;;;;;;;1.50;1.40;;;10.50;90.80;;;;;;4914374;29;20211;-84
2023/12/06 04:51:38;;;;;;;1.17;1.17;;;10.50;90.90;;;;;;4917047;29;20207;-84
2023/12/06 04:54:10;;;;;;;0.60;0.60;;;10.50;90.90;;;;;;4915431;29;20200;-83
2023/12/06 04:56:39;;;;;;;2.67;1.83;;;10.50;90.80;;;;;;4910483;29;20641;-84
2023/12/06 04:59:08;;;;;;;1.03;0.77;;;10.50;90.90;;;;;;4912880;29;20196;-84
2023/12/06 05:01:37;;;;;;;2.33;1.87;;;10.50;90.90;;;;;;4909810;29;20201;-84
2023/12/06 05:04:07;;;;;;;1.67;1.57;;;10.50;91.00;;;;;;4914907;29;20192;-84
2023/12/06 05:06:37;;;;;;;1.50;1.40;;;10.50;91.00;;;;;;4914249;29;20219;-83
2023/12/06 05:09:10;;;;;;;3.53;2.67;;;10.50;91.00;;;;;;4915356;29;20200;-83
2023/12/06 05:11:40;;;;;;;0.93;0.93;;;10.40;91.00;;;;;;4917574;29;20208;-84
2023/12/06 05:14:09;;;;;;;2.13;1.93;;;10.40;91.00;;;;;;4918841;29;20200;-81
2023/12/06 05:16:40;;;;;;;2.27;1.93;;;10.40;91.00;;;;;;4912515;29;20795;-83
2023/12/06 05:19:08;;;;;;;5.73;2.23;;;10.30;91.20;;;;;;4916334;29;20584;-83
2023/12/06 05:21:37;;;;;;;2.90;1.97;;;10.20;91.30;;;;;;4913417;29;20251;-84
2023/12/06 05:24:06;;;;;;;3.77;2.17;;;10.20;91.30;;;;;;4917192;29;20282;-84
2023/12/06 05:26:38;;;;;;;0.63;0.63;;;10.20;91.30;;;;;;4919884;29;20238;-82
2023/12/06 05:29:08;;;;;;;2.43;1.90;;;10.20;91.30;;;;;;4917172;29;20242;-84
2023/12/06 05:31:37;;;;;;;2.63;1.63;;;10.20;91.30;;;;;;4919053;29;20200;-84
2023/12/06 05:34:06;;;;;;;1.13;1.03;;;10.20;91.40;;;;;;4922936;29;20665;-84
2023/12/06 05:36:36;;;;;;;1.33;1.23;;;10.20;91.40;;;;;;4918742;29;20246;-83
2023/12/06 05:39:05;;;;;;;1.97;1.87;;;10.20;91.30;;;;;;4917694;29;20226;-84
2023/12/06 05:41:34;;;;;;;2.50;1.43;;;10.20;91.40;;;;;;4918593;29;20200;-83
2023/12/06 05:44:05;;;;;;;1.03;0.90;;;10.20;91.40;;;;;;4919028;29;20196;-84
2023/12/06 05:46:34;;;;;;;1.53;0.97;;;10.20;91.30;;;;;;4915097;29;20259;-82
2023/12/06 05:49:05;;;;;;;1.10;1.00;;;10.20;91.30;;;;;;4911396;29;20236;-86
2023/12/06 05:51:34;;;;;;;1.27;1.17;;;10.20;91.40;;;;;;4912079;29;20746;-83
2023/12/06 05:54:03;;;;;;;3.13;1.33;;;10.20;91.30;;;;;;4914627;29;20203;-84
2023/12/06 05:56:32;;;;;;;0.73;0.73;;;10.20;91.30;;;;;;4919053;29;20204;-84
2023/12/06 05:59:01;;;;;;;2.47;1.23;;;10.20;91.30;;;;;;4920668;29;20203;-82
2023/12/06 06:01:31;;;;;;;0.80;0.80;;;10.20;91.30;;;;;;4915704;29;20674;-85
2023/12/06 06:04:01;;;;;;;1.20;1.10;;;10.20;91.30;;;;;;4900982;29;20633;-86
2023/12/06 06:06:35;;;;;;;2.23;1.47;;;10.20;91.30;;;;;;4920919;29;20203;-81
2023/12/06 06:09:09;;;;;;;0.67;0.67;;;10.20;91.30;;;;;;4918313;29;20253;-82
2023/12/06 06:11:38;;;;;;;0.90;0.90;;;10.20;91.40;;;;;;4903603;29;20215;-84
2023/12/06 06:14:07;;;;;;;0.57;0.57;;;10.10;91.40;;;;;;4909261;29;20242;-82
2023/12/06 06:16:38;;;;;;;1.07;1.07;;;10.20;91.40;;;;;;4898240;29;20196;-82
2023/12/06 06:19:09;;;;;;;0.83;0.83;;;10.10;91.40;;;;;;4915936;29;20282;-84
2023/12/06 06:21:39;;;;;;;1.33;1.23;;;10.10;91.40;;;;;;4916176;29;20192;-84
2023/12/06 06:24:09;;;;;;;0.97;0.97;;;10.10;91.50;;;;;;4916371;29;20196;-84
2023/12/06 06:26:40;;;;;;;0.73;0.73;;;10.10;91.40;;;;;;4914513;29;20221;-84
2023/12/06 06:29:09;;;;;;;0.83;0.83;;;10.10;91.40;;;;;;4915750;29;20246;-85
2023/12/06 06:31:40;;;;;;;3.03;1.97;;;10.10;91.40;;;;;;4905768;29;20224;-85
2023/12/06 06:34:09;;;;;;;1.50;1.40;;;10.10;91.40;;;;;;4923925;29;20282;-88
2023/12/06 06:36:37;;;;;;;1.90;1.80;;;10.10;91.30;;;;;;4914498;29;20751;-84
2023/12/06 06:39:08;;;;;;;2.57;2.37;;;10.10;91.30;;;;;;4915907;29;20226;-84
2023/12/06 06:41:36;;;;;;;0.83;0.83;;;10.10;91.40;;;;;;4915155;29;20256;-83
2023/12/06 06:44:07;;;;;;;1.67;1.57;;;10.10;91.40;;;;;;4899547;29;20283;-84
2023/12/06 06:46:36;;;;;;;4.03;1.07;;;10.20;91.30;;;;;;4899725;29;20206;-81
2023/12/06 06:49:07;;;;;;;0.90;0.90;;;10.20;91.30;;;;;;4916477;29;20192;-83
2023/12/06 06:51:38;;;;;;;2.97;1.73;;;10.30;91.30;;;;;;4921891;29;20199;-84
2023/12/06 06:54:07;;;;;;;2.90;2.30;;;10.30;91.30;;;;;;4912866;29;20279;-85
2023/12/06 06:56:37;;;;;;;0.97;0.97;;;10.30;91.20;;;;;;4916519;29;20208;-83
2023/12/06 06:59:06;;;;;;;1.97;1.83;;;10.30;91.20;;;;;;4920518;29;20215;-84
2023/12/06 07:01:35;;;;;;;1.70;1.07;;;10.40;91.20;;;;;;4923275;29;20211;-83
2023/12/06 07:04:07;;;;;;;2.57;2.00;;;10.40;91.20;;;;;;4915121;29;20233;-84
2023/12/06 07:06:37;;;;;;;1.40;1.30;;;10.50;91.20;;;;;;4915401;29;20312;-83
2023/12/06 07:09:08;;;;;;;0.60;0.60;;;10.50;91.10;;;;;;4914336;29;20201;-85
2023/12/06 07:11:37;;;;;;;1.70;1.60;;;10.60;91.10;;;;;;4898728;29;20236;-84
2023/12/06 07:14:08;;;;;;;3.30;1.63;;;10.60;91.10;;;;;;4921073;29;20558;-85
2023/12/06 07:16:38;;;;;;;1.10;1.10;;;10.60;90.80;;;;;;4924628;29;20229;-83
2023/12/06 07:19:10;;;;;;;1.90;1.77;;;10.70;90.80;;;;;;4913655;29;20234;-84
2023/12/06 07:21:40;;;;;;;1.00;1.00;;;10.80;90.80;;;;;;4908937;29;20204;-84
2023/12/06 07:24:11;;;;;;;1.43;1.10;;;10.80;90.80;;;;;;4908799;29;20206;-87
2023/12/06 07:26:42;;;;;;;2.50;1.13;;;10.90;90.80;;;;;;4913230;29;20724;-81
2023/12/06 07:29:10;;;;;;;3.70;2.33;;;11.00;90.70;;;;;;4922719;29;20202;-81
2023/12/06 07:31:39;;;;;;;1.27;1.17;;;11.10;90.60;;;;;;4913129;29;20208;-81
2023/12/06 07:34:10;;;;;;;2.73;2.13;;;11.10;90.60;;;;;;4915007;29;20248;-81
2023/12/06 07:36:48;;;;;;;1.23;1.13;;;11.20;90.60;;;;;;4919138;29;20274;-81
2023/12/06 07:39:18;;;;;;;1.60;1.20;;;11.20;90.40;;;;;;4919523;29;20287;-81
2023/12/06 07:41:47;;;;;;;0.57;0.53;;;11.30;90.40;;;;;;4918176;29;20233;-84
2023/12/06 07:44:17;;;;;;;3.67;1.03;;;11.30;90.30;;;;;;4921014;29;20203;-83
2023/12/06 07:46:46;;;;;;;1.33;0.90;;;11.30;90.20;;;;;;4919478;29;20254;-82
2023/12/06 07:49:18;;;;;;;0.80;0.80;;;11.40;90.20;;;;;;4911140;29;20196;-83
2023/12/06 07:51:47;;;;;;;1.27;1.10;;;11.40;90.20;;;;;;4915401;29;20275;-82
2023/12/06 07:54:16;;;;;;;2.20;1.63;;;11.50;90.20;;;;;;4915873;29;20208;-82
2023/12/06 07:56:46;;;;;;;0.70;0.70;;;11.50;90.10;;;;;;4911904;29;20191;-82
2023/12/06 07:59:15;;;;;;;1.70;1.60;;;11.60;90.10;;;;;;4910995;29;20235;-83
2023/12/06 08:01:44;;;;;;;1.33;1.07;;;11.60;89.90;;;;;;4915161;29;20204;-83
2023/12/06 08:04:15;;;;;;;1.60;1.50;;;11.60;89.60;;;;;;4917633;29;20255;-81
2023/12/06 08:06:47;;;;;;;1.10;1.10;;;11.70;89.40;;;;;;4925312;29;20219;-82
2023/12/06 08:09:17;;;;;;;1.43;1.33;;;11.70;89.20;;;;;;4919138;29;20196;-83
2023/12/06 08:11:46;;;;;;;4.40;1.63;;;11.70;88.70;;;;;;4912456;29;20191;-82
2023/12/06 08:14:15;;;;;;;1.43;1.33;;;11.80;88.50;;;;;;4916604;29;20199;-82
2023/12/06 08:16:43;;;;;;;2.80;1.57;;;11.80;88.30;;;;;;4925824;29;20206;-83
2023/12/06 08:19:12;;;;;;;2.00;1.10;;;11.80;87.20;;;;;;4919139;29;20227;-82
2023/12/06 08:21:41;;;;;;;4.40;1.57;;;11.80;87.30;;;;;;4915952;29;20212;-83
2023/12/06 08:24:11;;;;;;;1.43;1.33;;;11.80;87.40;;;;;;4911552;29;20267;-81
2023/12/06 08:26:40;;;;;;;1.80;1.70;;;11.90;87.20;;;;;;4916468;29;20195;-79
2023/12/06 08:29:09;;;;;;;2.47;1.23;;;11.90;87.50;;;;;;4913169;29;20210;-83
2023/12/06 08:31:38;;;;;;;0.83;0.80;;;11.90;87.30;;;;;;4919054;29;20227;-84
2023/12/06 08:34:08;;;;;;;3.10;1.50;;;12.00;87.30;;;;;;4912666;29;20248;-84
2023/12/06 08:36:36;;;;;;;1.60;1.47;;;12.00;87.00;;;;;;4919061;29;20228;-84
2023/12/06 08:39:06;;;;;;;1.60;1.37;;;12.00;87.60;;;;;;4916639;29;20230;-85
2023/12/06 08:41:36;;;;;;;3.33;1.27;;;12.10;86.60;;;;;;4916152;29;20199;-84
2023/12/06 08:44:07;;;;;;;0.80;0.80;;;12.10;86.30;;;;;;4915428;29;20237;-85
2023/12/06 08:46:43;;;;;;;3.60;0.67;;;12.10;86.40;;;;;;4916631;29;20630;-91
2023/12/06 08:49:13;;;;;;;3.63;1.93;;;12.10;86.10;;;;;;4918455;29;20230;-85
2023/12/06 08:51:42;;;;;;;1.97;1.77;;;12.20;86.10;;;;;;4925430;29;20315;-82
2023/12/06 08:54:15;;;;;;;1.40;0.80;;;12.30;86.30;;;;;;4896856;29;20672;-84
2023/12/06 08:56:50;;;;;;;1.13;1.00;;;12.30;86.30;;;;;;4902307;29;20191;-84
2023/12/06 08:59:19;;;;;;;2.87;1.70;;;12.40;86.10;;;;;;4918584;29;20270;-86
2023/12/06 09:01:49;;;;;;;1.97;1.73;;;12.40;86.00;;;;;;4915776;29;20201;-86
2023/12/06 09:04:19;;;;;;;5.70;1.43;;;12.40;85.10;;;;;;4915588;29;20192;-85
2023/12/06 09:06:48;;;;;;;0.70;0.70;;;12.40;83.90;;;;;;4917695;29;20203;-86
2023/12/06 09:09:17;;;;;;;0.97;0.93;;;12.40;84.20;;;;;;4921440;29;20196;-85
2023/12/06 09:11:46;;;;;;;2.87;0.90;;;12.40;84.10;;;;;;4926701;29;20299;-85
2023/12/06 09:14:19;;;;;;;0.83;0.83;;;12.40;83.70;;;;;;4920021;29;20196;-85
2023/12/06 09:16:48;;;;;;;1.17;1.07;;;12.50;84.00;;;;;;4919391;29;20251;-85
2023/12/06 09:19:17;;;;;;;0.77;0.77;;;12.50;84.00;;;;;;4921021;29;20216;-82
2023/12/06 09:21:48;;;;;;;0.73;0.73;;;12.60;84.40;;;;;;4900140;29;20191;-86
2023/12/06 09:24:19;;;;;;;0.80;0.80;;;12.70;84.50;;;;;;4917271;29;20200;-84
2023/12/06 09:26:48;;;;;;;1.80;1.43;;;12.70;84.10;;;;;;4921313;29;20199;-82
2023/12/06 09:29:18;;;;;;;1.03;1.00;;;12.70;83.10;;;;;;4924156;29;20203;-83
2023/12/06 09:31:48;;;;;;;1.77;0.97;;;12.70;82.10;;;;;;4921100;29;20306;-83
2023/12/06 09:34:19;;;;;;;2.27;1.70;;;12.80;82.10;;;;;;4899903;29;20204;-83
2023/12/06 09:37:05;;;;;;;2.73;0.60;;;12.80;81.90;;;;;;4919088;29;20632;-84
2023/12/06 09:39:34;;;;;;;3.10;1.70;;;12.90;81.90;;;;;;4916273;29;20231;-83
2023/12/06 09:42:04;;;;;;;0.80;0.80;;;12.90;82.40;;;;;;4895893;29;20211;-83
2023/12/06 09:44:37;;;;;;;0.75;0.70;;;12.90;82.20;;;;;;4912217;29;20452;-81
2023/12/06 09:47:06;;;;;;;1.90;1.13;;;13.00;82.20;;;;;;4913957;29;20200;-82
2023/12/06 09:49:36;;;;;;;0.80;0.80;;;13.10;82.00;;;;;;4915766;29;20205;-83
2023/12/06 09:52:11;;;;;;;0.63;0.63;;;13.10;81.40;;;;;;4911312;29;20642;-84
2023/12/06 09:54:43;;;;;;;1.30;0.97;;;13.10;81.90;;;;;;4909292;29;20195;-84
2023/12/06 09:57:12;;;;;;;0.40;0.40;;;13.20;81.40;;;;;;4893624;29;20726;-80
2023/12/06 09:59:43;;;;;;;1.70;1.27;;;13.20;81.00;;;;;;4916132;29;20232;-87
2023/12/06 10:02:13;;;;;;;0.87;0.87;;;13.20;81.20;;;;;;4928802;29;20255;-85
2023/12/06 10:04:43;;;;;;;0.70;0.70;;;13.20;80.80;;;;;;4923819;29;20206;-83
2023/12/06 10:07:13;;;;;;;1.15;1.05;;;13.20;80.20;;;;;;4901842;29;20467;-86
2023/12/06 10:09:50;;;;;;;1.13;1.07;;;13.20;80.60;;;;;;4913419;29;20207;-82
2023/12/06 10:12:19;;;;;;;0.80;0.80;;;13.20;80.50;;;;;;4898116;29;20199;-83
2023/12/06 10:14:59;;;;;;;0.83;0.83;;;13.20;80.30;;;;;;4922243;29;20282;-84
2023/12/06 10:17:29;;;;;;;6.60;2.20;;;13.20;79.40;;;;;;4909819;29;20209;-86
2023/12/06 10:19:58;;;;;;;0.63;0.63;;;13.20;79.40;;;;;;4917598;29;20218;-84
2023/12/06 10:22:29;;;;;;;1.80;1.07;;;13.20;79.50;;;;;;4901365;29;20204;-91
2023/12/06 10:25:00;;;;;;;0.87;0.87;;;13.30;79.80;;;;;;4912353;29;20623;-86
2023/12/06 10:27:31;;;;;;;0.83;0.83;;;13.30;79.70;;;;;;4922356;29;20204;-86
2023/12/06 10:30:01;;;;;;;0.50;0.50;;;13.20;79.50;;;;;;4905764;29;20206;-86
2023/12/06 10:32:32;;;;;;;0.70;0.70;;;13.20;79.70;;;;;;4922211;29;20203;-86
2023/12/06 10:35:05;;;;;;;1.33;1.23;;;13.10;80.00;;;;;;4900411;29;20282;-87
2023/12/06 10:37:35;;;;;;;1.80;1.63;;;13.10;80.30;;;;;;4927631;29;20241;-88
2023/12/06 10:40:09;;;;;;;3.07;1.10;;;13.10;80.30;;;;;;4919512;29;20314;-88
2023/12/06 10:42:41;;;;;;;2.57;1.17;;;13.10;80.20;;;;;;4913525;29;20201;-88
2023/12/06 10:45:17;;;;;;;1.13;1.03;;;13.20;80.20;;;;;;4921209;29;21010;-88
2023/12/06 10:47:48;;;;;;;2.23;1.40;;;13.20;80.50;;;;;;4913140;29;20208;-87
2023/12/06 10:50:18;;;;;;;2.80;1.83;;;13.30;80.80;;;;;;4920292;29;20235;-88
2023/12/06 10:52:49;;;;;;;2.77;1.47;;;13.40;80.30;;;;;;4905950;29;20242;-88
2023/12/06 10:55:19;;;;;;;0.70;0.70;;;13.50;80.40;;;;;;4919089;29;20294;-87
2023/12/06 10:57:50;;;;;;;3.03;2.33;;;13.60;80.50;;;;;;4915629;29;20219;-84
2023/12/06 11:00:22;;;;;;;1.30;1.20;;;13.60;80.10;;;;;;4924792;29;20306;-88
2023/12/06 11:02:51;;;;;;;5.77;1.20;;;13.70;80.00;;;;;;4887007;29;20203;-89
2023/12/06 11:05:24;;;;;;;1.27;0.57;;;13.80;79.40;;;;;;4917705;29;20203;-84
2023/12/06 11:08:27;;;;;;;2.40;1.17;;;13.80;77.60;;;;;;4911933;29;20195;-89
2023/12/06 11:11:17;;;;;;;2.63;2.27;;;13.80;76.50;;;;;;4917356;29;20199;-89
2023/12/06 11:14:00;;;;;;;1.30;0.80;;;13.80;76.90;;;;;;4920826;29;20195;-89
2023/12/06 11:16:46;;;;;;;1.30;1.20;;;13.80;76.90;;;;;;4905226;29;20198;-87
2023/12/06 11:19:18;;;;;;;0.97;0.90;;;13.80;76.90;;;;;;4924826;29;21203;-86
2023/12/06 11:21:53;;;;;;;0.97;0.93;;;13.80;77.00;;;;;;4921429;29;20718;-88
2023/12/06 11:24:25;;;;;;;2.60;1.50;;;13.80;77.00;;;;;;4924769;29;20290;-88
2023/12/06 11:26:55;;;;;;;0.87;0.77;;;13.80;76.90;;;;;;4915297;29;20224;-87
2023/12/06 11:29:26;;;;;;;0.57;0.57;;;13.60;75.80;;;;;;4907307;29;20268;-85
2023/12/06 11:32:00;;;;;;;0.73;0.70;;;13.40;76.20;;;;;;4916031;29;20212;-83
2023/12/06 11:34:36;;;;;;;0.93;0.63;;;13.40;76.80;;;;;;4901398;29;20731;-84
2023/12/06 11:37:08;;;;;;;3.70;1.27;;;13.50;77.20;;;;;;4917398;29;20227;-87
2023/12/06 11:39:39;;;;;;;0.67;0.67;;;13.40;77.40;;;;;;4912259;29;20192;-87
2023/12/06 11:42:08;;;;;;;0.70;0.70;;;13.40;77.80;;;;;;4922187;29;20200;-83
2023/12/06 11:44:37;;;;;;;2.33;1.37;;;13.30;78.00;;;;;;4919477;29;20200;-85
2023/12/06 11:47:08;;;;;;;0.43;0.43;;;13.20;78.20;;;;;;4921330;29;20204;-86
2023/12/06 11:49:36;;;;;;;1.20;1.00;;;13.20;78.60;;;;;;4927389;29;20187;-85
2023/12/06 11:52:10;;;;;;;1.33;1.23;;;13.10;78.70;;;;;;4926028;29;20272;-85
2023/12/06 11:54:46;;;;;;;0.60;0.60;;;13.00;79.00;;;;;;4906517;29;20663;-84
2023/12/06 11:57:16;;;;;;;1.07;1.03;;;12.90;79.40;;;;;;4921369;29;20810;-86
2023/12/06 11:59:47;;;;;;;1.13;1.13;;;12.90;79.80;;;;;;4918886;29;20649;-85
2023/12/06 12:02:19;;;;;;;0.63;0.63;;;12.80;80.30;;;;;;4919970;29;20215;-85
2023/12/06 12:04:53;;;;;;;1.23;1.10;;;12.70;80.50;;;;;;4916893;29;20645;-85
2023/12/06 12:07:23;;;;;;;0.47;0.43;;;12.60;81.10;;;;;;4925771;29;20258;-87
2023/12/06 12:09:54;;;;;;;8.70;0.83;;;12.50;81.60;;;;;;4918124;29;21084;-84
2023/12/06 12:12:25;;;;;;;0.70;0.70;;;12.30;82.20;;;;;;4915530;29;20199;-84
2023/12/06 12:14:54;;;;;;;0.73;0.70;;;12.10;83.00;;;;;;4922307;29;20199;-83
2023/12/06 12:17:26;;;;;;;0.80;0.80;;;12.10;83.20;;;;;;4916912;29;20450;-86
2023/12/06 12:19:56;;;;;;;0.80;0.60;;;11.90;83.90;;;;;;4914958;29;20202;-86
2023/12/06 12:22:29;;;;;;;1.27;1.17;;;11.90;84.80;;;;;;4918373;29;20287;-86
2023/12/06 12:24:59;;;;;;;0.77;0.77;;;11.90;84.20;;;;;;4921642;29;20199;-91
2023/12/06 12:27:30;;;;;;;1.50;0.87;;;11.90;84.70;;;;;;4918797;29;20305;-85
2023/12/06 12:29:59;;;;;;;0.87;0.60;;;11.90;84.50;;;;;;4909460;29;20206;-84
2023/12/06 12:32:31;;;;;;;0.67;0.67;;;11.80;85.60;;;;;;4906179;29;20210;-85
2023/12/06 12:35:09;;;;;;;1.23;1.13;;;11.70;86.30;;;;;;4915705;29;20628;-85
2023/12/06 12:37:40;;;;;;;1.33;1.23;;;11.70;86.20;;;;;;4912403;29;20227;-86
2023/12/06 12:40:10;;;;;;;2.53;0.47;;;11.60;86.60;;;;;;4913673;29;20196;-85
2023/12/06 12:42:41;;;;;;;0.50;0.50;;;11.60;86.70;;;;;;4918750;29;20210;-87
2023/12/06 12:45:14;;;;;;;1.50;0.83;;;11.50;87.60;;;;;;4917691;29;20208;-89
2023/12/06 12:47:49;;;;;;;0.67;0.67;;;11.40;88.00;;;;;;4927555;29;20208;-88
2023/12/06 12:50:22;;;;;;;3.33;1.30;;;11.30;88.20;;;;;;4901245;29;20264;-91
2023/12/06 12:52:54;;;;;;;0.57;0.57;;;11.30;88.80;;;;;;4920831;29;20200;-88
2023/12/06 12:55:27;;;;;;;1.33;1.20;;;11.20;89.30;;;;;;4900008;29;20206;-86
2023/12/06 12:57:57;;;;;;;0.43;0.43;;;11.20;89.60;;;;;;4900976;29;20177;-85
2023/12/06 13:00:30;;;;;;;1.60;0.73;;;11.20;89.60;;;;;;4917290;29;20674;-86
2023/12/06 13:03:07;;;;;;;0.98;0.98;;;11.10;89.70;;;;;;4918990;29;20456;-87
2023/12/06 13:05:47;;;;;;;0.87;0.87;;;11.10;89.60;;;;;;4918355;29;20199;-87